sensor_id;sensor_type;location;lat;lon;timestamp;temperature;humidity
66710;DHT22;53624;0.000;0.000;2022-11-20T00:00:01;12.40;99.90
66710;DHT22;53624;0.000;0.000;2022-11-20T00:02:33;12.40;99.90
66710;DHT22;53624;0.000;0.000;2022-11-20T00:05:00;12.40;99.90
66710;DHT22;53624;0.000;0.000;2022-11-20T00:07:28;12.30;99.90
66710;DHT22;53624;0.000;0.000;2022-11-20T00:09:55;12.40;99.90
66710;DHT22;53624;0.000;0.000;2022-11-20T00:12:22;12.40;99.90
66710;DHT22;53624;0.000;0.000;2022-11-20T00:14:50;12.30;99.90
66710;DHT22;53624;0.000;0.000;2022-11-20T00:17:19;12.30;99.90
66710;DHT22;53624;0.000;0.000;2022-11-20T00:19:47;12.30;99.90
66710;DHT22;53624;0.000;0.000;2022-11-20T00:22:15;12.30;99.90
66710;DHT22;53624;0.000;0.000;2022-11-20T00:24:43;12.30;99.90
66710;DHT22;53624;0.000;0.000;2022-11-20T00:27:10;12.30;99.90
66710;DHT22;53624;0.000;0.000;2022-11-20T00:29:37;12.30;99.90
66710;DHT22;53624;0.000;0.000;2022-11-20T00:32:05;12.30;99.90
66710;DHT22;53624;0.000;0.000;2022-11-20T00:34:34;12.30;99.90
66710;DHT22;53624;0.000;0.000;2022-11-20T00:37:01;12.30;99.90
66710;DHT22;53624;0.000;0.000;2022-11-20T00:39:29;12.30;99.90
66710;DHT22;53624;0.000;0.000;2022-11-20T00:41:56;12.30;99.90
66710;DHT22;53624;0.000;0.000;2022-11-20T00:44:23;12.30;99.90
66710;DHT22;53624;0.000;0.000;2022-11-20T00:46:51;12.30;99.90
66710;DHT22;53624;0.000;0.000;2022-11-20T00:49:18;12.30;99.90
66710;DHT22;53624;0.000;0.000;2022-11-20T00:51:47;12.30;99.90
66710;DHT22;53624;0.000;0.000;2022-11-20T00:54:15;12.30;99.90
66710;DHT22;53624;0.000;0.000;2022-11-20T00:56:42;12.30;99.90
66710;DHT22;53624;0.000;0.000;2022-11-20T00:59:10;12.30;99.90
66710;DHT22;53624;0.000;0.000;2022-11-20T01:01:38;12.20;99.90
66710;DHT22;53624;0.000;0.000;2022-11-20T01:04:05;12.30;99.90
66710;DHT22;53624;0.000;0.000;2022-11-20T01:06:33;12.30;99.90
66710;DHT22;53624;0.000;0.000;2022-11-20T01:09:03;12.20;99.90
66710;DHT22;53624;0.000;0.000;2022-11-20T01:11:31;12.20;99.90
66710;DHT22;53624;0.000;0.000;2022-11-20T01:13:59;12.20;99.90
66710;DHT22;53624;0.000;0.000;2022-11-20T01:16:28;12.20;99.90
66710;DHT22;53624;0.000;0.000;2022-11-20T01:18:57;12.20;99.90
66710;DHT22;53624;0.000;0.000;2022-11-20T01:21:26;12.30;99.90
66710;DHT22;53624;0.000;0.000;2022-11-20T01:23:53;12.20;99.90
66710;DHT22;53624;0.000;0.000;2022-11-20T01:26:23;12.20;99.90
66710;DHT22;53624;0.000;0.000;2022-11-20T01:28:51;12.20;99.90
66710;DHT22;53624;0.000;0.000;2022-11-20T01:31:19;12.20;99.90
66710;DHT22;53624;0.000;0.000;2022-11-20T01:33:48;12.20;99.90
66710;DHT22;53624;0.000;0.000;2022-11-20T01:36:16;12.20;99.90
66710;DHT22;53624;0.000;0.000;2022-11-20T01:38:44;12.20;99.90
66710;DHT22;53624;0.000;0.000;2022-11-20T01:41:12;12.20;99.90
66710;DHT22;53624;0.000;0.000;2022-11-20T01:44:02;12.20;99.90
66710;DHT22;53624;0.000;0.000;2022-11-20T01:46:30;12.20;99.90
66710;DHT22;53624;0.000;0.000;2022-11-20T01:48:58;12.20;99.90
66710;DHT22;53624;0.000;0.000;2022-11-20T01:51:29;12.20;99.90
66710;DHT22;53624;0.000;0.000;2022-11-20T01:54:00;12.20;99.90
66710;DHT22;53624;0.000;0.000;2022-11-20T01:56:28;12.20;99.90
66710;DHT22;53624;0.000;0.000;2022-11-20T01:58:56;12.20;99.90
66710;DHT22;53624;0.000;0.000;2022-11-20T02:01:26;12.20;99.90
66710;DHT22;53624;0.000;0.000;2022-11-20T02:03:54;12.20;99.90
66710;DHT22;53624;0.000;0.000;2022-11-20T02:06:22;12.20;99.90
66710;DHT22;53624;0.000;0.000;2022-11-20T02:08:51;12.20;99.90
66710;DHT22;53624;0.000;0.000;2022-11-20T02:11:18;12.20;99.90
66710;DHT22;53624;0.000;0.000;2022-11-20T02:13:46;12.20;99.90
66710;DHT22;53624;0.000;0.000;2022-11-20T02:16:14;12.20;99.90
66710;DHT22;53624;0.000;0.000;2022-11-20T02:18:44;12.20;99.90
66710;DHT22;53624;0.000;0.000;2022-11-20T02:21:15;12.10;99.90
66710;DHT22;53624;0.000;0.000;2022-11-20T02:26:36;12.10;99.90
66710;DHT22;53624;0.000;0.000;2022-11-20T02:29:05;12.10;99.90
66710;DHT22;53624;0.000;0.000;2022-11-20T02:31:40;12.10;99.90
66710;DHT22;53624;0.000;0.000;2022-11-20T02:34:09;12.10;99.90
66710;DHT22;53624;0.000;0.000;2022-11-20T02:36:37;12.10;99.90
66710;DHT22;53624;0.000;0.000;2022-11-20T02:39:05;12.10;99.90
66710;DHT22;53624;0.000;0.000;2022-11-20T02:41:35;12.10;99.90
66710;DHT22;53624;0.000;0.000;2022-11-20T02:44:03;12.10;99.90
66710;DHT22;53624;0.000;0.000;2022-11-20T02:46:31;12.10;99.90
66710;DHT22;53624;0.000;0.000;2022-11-20T02:48:59;12.10;99.90
66710;DHT22;53624;0.000;0.000;2022-11-20T02:51:27;12.10;99.90
66710;DHT22;53624;0.000;0.000;2022-11-20T02:53:54;12.10;99.90
66710;DHT22;53624;0.000;0.000;2022-11-20T02:56:22;12.10;99.90
66710;DHT22;53624;0.000;0.000;2022-11-20T02:58:51;12.10;99.90
66710;DHT22;53624;0.000;0.000;2022-11-20T03:01:18;12.00;99.90
66710;DHT22;53624;0.000;0.000;2022-11-20T03:03:46;12.00;99.90
66710;DHT22;53624;0.000;0.000;2022-11-20T03:06:14;12.00;99.90
66710;DHT22;53624;0.000;0.000;2022-11-20T03:08:42;12.00;99.90
66710;DHT22;53624;0.000;0.000;2022-11-20T03:11:10;12.00;99.90
66710;DHT22;53624;0.000;0.000;2022-11-20T03:13:37;12.00;99.90
66710;DHT22;53624;0.000;0.000;2022-11-20T03:16:07;12.00;99.90
66710;DHT22;53624;0.000;0.000;2022-11-20T03:18:35;12.00;99.90
66710;DHT22;53624;0.000;0.000;2022-11-20T03:21:02;12.00;99.90
66710;DHT22;53624;0.000;0.000;2022-11-20T03:23:30;12.00;99.90
66710;DHT22;53624;0.000;0.000;2022-11-20T03:26:08;12.00;99.90
66710;DHT22;53624;0.000;0.000;2022-11-20T03:28:36;12.00;99.90
66710;DHT22;53624;0.000;0.000;2022-11-20T03:31:09;12.00;99.90
66710;DHT22;53624;0.000;0.000;2022-11-20T03:33:36;12.00;99.90
66710;DHT22;53624;0.000;0.000;2022-11-20T03:36:05;12.00;99.90
66710;DHT22;53624;0.000;0.000;2022-11-20T03:38:33;12.00;99.90
66710;DHT22;53624;0.000;0.000;2022-11-20T03:41:00;11.90;99.90
66710;DHT22;53624;0.000;0.000;2022-11-20T03:43:28;11.90;99.90
66710;DHT22;53624;0.000;0.000;2022-11-20T03:45:55;11.90;99.90
66710;DHT22;53624;0.000;0.000;2022-11-20T03:48:24;11.90;99.90
66710;DHT22;53624;0.000;0.000;2022-11-20T03:50:52;11.90;99.90
66710;DHT22;53624;0.000;0.000;2022-11-20T03:53:19;11.90;99.90
66710;DHT22;53624;0.000;0.000;2022-11-20T03:55:50;11.90;99.90
66710;DHT22;53624;0.000;0.000;2022-11-20T03:58:17;11.90;99.90
66710;DHT22;53624;0.000;0.000;2022-11-20T04:00:45;11.90;99.90
66710;DHT22;53624;0.000;0.000;2022-11-20T04:03:12;11.90;99.90
66710;DHT22;53624;0.000;0.000;2022-11-20T04:05:41;11.90;99.90
66710;DHT22;53624;0.000;0.000;2022-11-20T04:08:09;11.90;99.90
66710;DHT22;53624;0.000;0.000;2022-11-20T04:10:36;11.90;99.90
66710;DHT22;53624;0.000;0.000;2022-11-20T04:13:04;11.90;99.90
66710;DHT22;53624;0.000;0.000;2022-11-20T04:15:31;11.90;99.90
66710;DHT22;53624;0.000;0.000;2022-11-20T04:17:59;11.90;99.90
66710;DHT22;53624;0.000;0.000;2022-11-20T04:20:26;11.90;99.90
66710;DHT22;53624;0.000;0.000;2022-11-20T04:22:55;11.90;99.90
66710;DHT22;53624;0.000;0.000;2022-11-20T04:25:22;11.90;99.90
66710;DHT22;53624;0.000;0.000;2022-11-20T04:27:50;11.90;99.90
66710;DHT22;53624;0.000;0.000;2022-11-20T04:30:17;11.90;99.90
66710;DHT22;53624;0.000;0.000;2022-11-20T04:32:45;11.90;99.90
66710;DHT22;53624;0.000;0.000;2022-11-20T04:35:12;11.90;99.90
66710;DHT22;53624;0.000;0.000;2022-11-20T04:37:40;11.90;99.90
66710;DHT22;53624;0.000;0.000;2022-11-20T04:40:09;11.90;99.90
66710;DHT22;53624;0.000;0.000;2022-11-20T04:42:36;11.90;99.90
66710;DHT22;53624;0.000;0.000;2022-11-20T04:45:04;11.90;99.90
66710;DHT22;53624;0.000;0.000;2022-11-20T04:47:32;11.90;99.90
66710;DHT22;53624;0.000;0.000;2022-11-20T04:49:59;11.90;99.90
66710;DHT22;53624;0.000;0.000;2022-11-20T04:52:27;11.90;99.90
66710;DHT22;53624;0.000;0.000;2022-11-20T04:54:54;11.90;99.90
66710;DHT22;53624;0.000;0.000;2022-11-20T04:57:23;11.90;99.90
66710;DHT22;53624;0.000;0.000;2022-11-20T04:59:51;11.90;99.90
66710;DHT22;53624;0.000;0.000;2022-11-20T05:02:18;11.90;99.90
66710;DHT22;53624;0.000;0.000;2022-11-20T05:04:46;11.90;99.90
66710;DHT22;53624;0.000;0.000;2022-11-20T05:07:13;11.90;99.90
66710;DHT22;53624;0.000;0.000;2022-11-20T05:09:40;11.90;99.90
66710;DHT22;53624;0.000;0.000;2022-11-20T05:12:08;11.90;99.90
66710;DHT22;53624;0.000;0.000;2022-11-20T05:14:37;11.80;99.90
66710;DHT22;53624;0.000;0.000;2022-11-20T05:17:04;11.80;99.90
66710;DHT22;53624;0.000;0.000;2022-11-20T05:19:32;11.80;99.90
66710;DHT22;53624;0.000;0.000;2022-11-20T05:21:59;11.90;99.90
66710;DHT22;53624;0.000;0.000;2022-11-20T05:24:27;11.80;99.90
66710;DHT22;53624;0.000;0.000;2022-11-20T05:26:54;11.80;99.90
66710;DHT22;53624;0.000;0.000;2022-11-20T05:29:22;11.80;99.90
66710;DHT22;53624;0.000;0.000;2022-11-20T05:31:50;11.80;99.90
66710;DHT22;53624;0.000;0.000;2022-11-20T05:34:18;11.90;99.90
66710;DHT22;53624;0.000;0.000;2022-11-20T05:36:45;11.90;99.90
66710;DHT22;53624;0.000;0.000;2022-11-20T05:39:13;11.80;99.90
66710;DHT22;53624;0.000;0.000;2022-11-20T05:41:40;11.90;99.90
66710;DHT22;53624;0.000;0.000;2022-11-20T05:44:09;11.90;99.90
66710;DHT22;53624;0.000;0.000;2022-11-20T05:46:37;11.90;99.90
66710;DHT22;53624;0.000;0.000;2022-11-20T05:49:06;11.80;99.90
66710;DHT22;53624;0.000;0.000;2022-11-20T05:51:33;11.80;99.90
66710;DHT22;53624;0.000;0.000;2022-11-20T05:54:01;11.80;99.90
66710;DHT22;53624;0.000;0.000;2022-11-20T05:56:28;11.80;99.90
66710;DHT22;53624;0.000;0.000;2022-11-20T05:58:56;11.80;99.90
66710;DHT22;53624;0.000;0.000;2022-11-20T06:01:23;11.80;99.90
66710;DHT22;53624;0.000;0.000;2022-11-20T06:03:52;11.80;99.90
66710;DHT22;53624;0.000;0.000;2022-11-20T06:06:21;11.80;99.90
66710;DHT22;53624;0.000;0.000;2022-11-20T06:08:49;11.80;99.90
66710;DHT22;53624;0.000;0.000;2022-11-20T06:11:16;11.80;99.90
66710;DHT22;53624;0.000;0.000;2022-11-20T06:13:44;11.80;99.90
66710;DHT22;53624;0.000;0.000;2022-11-20T06:16:12;11.80;99.90
66710;DHT22;53624;0.000;0.000;2022-11-20T06:18:40;11.80;99.90
66710;DHT22;53624;0.000;0.000;2022-11-20T06:21:08;11.80;99.90
66710;DHT22;53624;0.000;0.000;2022-11-20T06:23:37;11.80;99.90
66710;DHT22;53624;0.000;0.000;2022-11-20T06:26:06;11.70;99.90
66710;DHT22;53624;0.000;0.000;2022-11-20T06:28:34;11.70;99.90
66710;DHT22;53624;0.000;0.000;2022-11-20T06:31:02;11.70;99.90
66710;DHT22;53624;0.000;0.000;2022-11-20T06:33:29;11.70;99.90
66710;DHT22;53624;0.000;0.000;2022-11-20T06:35:57;11.70;99.90
66710;DHT22;53624;0.000;0.000;2022-11-20T06:38:24;11.70;99.90
66710;DHT22;53624;0.000;0.000;2022-11-20T06:40:53;11.70;99.90
66710;DHT22;53624;0.000;0.000;2022-11-20T06:43:21;11.70;99.90
66710;DHT22;53624;0.000;0.000;2022-11-20T06:45:51;11.70;99.90
66710;DHT22;53624;0.000;0.000;2022-11-20T06:48:19;11.60;99.90
66710;DHT22;53624;0.000;0.000;2022-11-20T06:50:46;11.60;99.90
66710;DHT22;53624;0.000;0.000;2022-11-20T06:53:13;11.60;99.90
66710;DHT22;53624;0.000;0.000;2022-11-20T06:55:41;11.60;99.90
66710;DHT22;53624;0.000;0.000;2022-11-20T06:58:11;11.60;99.90
66710;DHT22;53624;0.000;0.000;2022-11-20T07:00:38;11.60;99.90
66710;DHT22;53624;0.000;0.000;2022-11-20T07:03:06;11.60;99.90
66710;DHT22;53624;0.000;0.000;2022-11-20T07:05:34;11.60;99.90
66710;DHT22;53624;0.000;0.000;2022-11-20T07:08:02;11.60;99.90
66710;DHT22;53624;0.000;0.000;2022-11-20T07:10:30;11.60;99.90
66710;DHT22;53624;0.000;0.000;2022-11-20T07:12:58;11.60;99.90
66710;DHT22;53624;0.000;0.000;2022-11-20T07:15:27;11.60;99.90
66710;DHT22;53624;0.000;0.000;2022-11-20T07:17:54;11.60;99.90
66710;DHT22;53624;0.000;0.000;2022-11-20T07:20:22;11.60;99.90
66710;DHT22;53624;0.000;0.000;2022-11-20T07:22:52;11.50;99.90
66710;DHT22;53624;0.000;0.000;2022-11-20T07:25:20;11.50;99.90
66710;DHT22;53624;0.000;0.000;2022-11-20T07:27:47;11.50;99.90
66710;DHT22;53624;0.000;0.000;2022-11-20T07:30:15;11.60;99.90
66710;DHT22;53624;0.000;0.000;2022-11-20T07:32:47;11.60;99.90
66710;DHT22;53624;0.000;0.000;2022-11-20T07:35:15;11.60;99.90
66710;DHT22;53624;0.000;0.000;2022-11-20T07:37:42;11.60;99.90
66710;DHT22;53624;0.000;0.000;2022-11-20T07:40:11;11.60;99.90
66710;DHT22;53624;0.000;0.000;2022-11-20T07:42:41;11.70;99.90
66710;DHT22;53624;0.000;0.000;2022-11-20T07:45:14;11.70;99.90
66710;DHT22;53624;0.000;0.000;2022-11-20T07:47:41;11.70;99.90
66710;DHT22;53624;0.000;0.000;2022-11-20T07:50:10;11.70;99.90
66710;DHT22;53624;0.000;0.000;2022-11-20T07:52:38;11.70;99.90
66710;DHT22;53624;0.000;0.000;2022-11-20T07:55:06;11.70;99.90
66710;DHT22;53624;0.000;0.000;2022-11-20T07:57:34;11.70;99.90
66710;DHT22;53624;0.000;0.000;2022-11-20T08:00:02;11.70;99.90
66710;DHT22;53624;0.000;0.000;2022-11-20T08:02:38;11.70;99.90
66710;DHT22;53624;0.000;0.000;2022-11-20T08:05:06;11.70;99.90
66710;DHT22;53624;0.000;0.000;2022-11-20T08:07:39;11.70;99.90
66710;DHT22;53624;0.000;0.000;2022-11-20T08:10:07;11.70;99.90
66710;DHT22;53624;0.000;0.000;2022-11-20T08:12:35;11.70;99.90
66710;DHT22;53624;0.000;0.000;2022-11-20T08:15:19;11.70;99.90
66710;DHT22;53624;0.000;0.000;2022-11-20T08:17:47;11.80;99.90
66710;DHT22;53624;0.000;0.000;2022-11-20T08:20:14;11.80;99.90
66710;DHT22;53624;0.000;0.000;2022-11-20T08:22:43;11.80;99.90
66710;DHT22;53624;0.000;0.000;2022-11-20T08:25:11;11.90;99.90
66710;DHT22;53624;0.000;0.000;2022-11-20T08:27:38;11.90;99.90
66710;DHT22;53624;0.000;0.000;2022-11-20T08:30:07;11.90;99.90
66710;DHT22;53624;0.000;0.000;2022-11-20T08:32:34;12.00;99.90
66710;DHT22;53624;0.000;0.000;2022-11-20T08:35:04;12.00;99.90
66710;DHT22;53624;0.000;0.000;2022-11-20T08:37:34;12.10;99.90
66710;DHT22;53624;0.000;0.000;2022-11-20T08:40:12;12.20;99.90
66710;DHT22;53624;0.000;0.000;2022-11-20T08:42:45;12.30;99.90
66710;DHT22;53624;0.000;0.000;2022-11-20T08:45:13;12.40;99.90
66710;DHT22;53624;0.000;0.000;2022-11-20T08:47:40;12.40;99.90
66710;DHT22;53624;0.000;0.000;2022-11-20T08:50:08;12.60;99.90
66710;DHT22;53624;0.000;0.000;2022-11-20T08:52:35;12.70;99.90
66710;DHT22;53624;0.000;0.000;2022-11-20T08:55:04;12.90;99.90
66710;DHT22;53624;0.000;0.000;2022-11-20T08:57:33;13.00;99.90
66710;DHT22;53624;0.000;0.000;2022-11-20T09:00:00;13.30;99.90
66710;DHT22;53624;0.000;0.000;2022-11-20T09:02:28;13.60;99.90
66710;DHT22;53624;0.000;0.000;2022-11-20T09:04:56;13.90;99.90
66710;DHT22;53624;0.000;0.000;2022-11-20T09:07:23;14.10;99.90
66710;DHT22;53624;0.000;0.000;2022-11-20T09:09:51;14.30;99.90
66710;DHT22;53624;0.000;0.000;2022-11-20T09:12:18;14.30;99.90
66710;DHT22;53624;0.000;0.000;2022-11-20T09:14:47;14.40;99.90
66710;DHT22;53624;0.000;0.000;2022-11-20T09:17:14;14.60;99.90
66710;DHT22;53624;0.000;0.000;2022-11-20T09:19:42;14.70;99.90
66710;DHT22;53624;0.000;0.000;2022-11-20T09:22:10;14.90;99.90
66710;DHT22;53624;0.000;0.000;2022-11-20T09:24:37;15.10;99.90
66710;DHT22;53624;0.000;0.000;2022-11-20T09:27:05;15.30;99.80
66710;DHT22;53624;0.000;0.000;2022-11-20T09:29:33;15.60;99.50
66710;DHT22;53624;0.000;0.000;2022-11-20T09:32:02;15.80;99.30
66710;DHT22;53624;0.000;0.000;2022-11-20T09:34:29;16.00;99.10
66710;DHT22;53624;0.000;0.000;2022-11-20T09:36:57;16.00;99.00
66710;DHT22;53624;0.000;0.000;2022-11-20T09:39:24;15.90;99.30
66710;DHT22;53624;0.000;0.000;2022-11-20T09:41:56;15.80;99.50
66710;DHT22;53624;0.000;0.000;2022-11-20T09:44:31;15.60;99.70
66710;DHT22;53624;0.000;0.000;2022-11-20T09:47:04;15.50;99.90
66710;DHT22;53624;0.000;0.000;2022-11-20T09:49:37;15.40;99.90
66710;DHT22;53624;0.000;0.000;2022-11-20T09:52:15;15.40;99.90
66710;DHT22;53624;0.000;0.000;2022-11-20T09:54:45;15.30;99.90
66710;DHT22;53624;0.000;0.000;2022-11-20T09:57:13;15.30;99.90
66710;DHT22;53624;0.000;0.000;2022-11-20T09:59:43;15.30;99.90
66710;DHT22;53624;0.000;0.000;2022-11-20T10:02:28;15.30;99.90
66710;DHT22;53624;0.000;0.000;2022-11-20T10:05:00;15.20;99.90
66710;DHT22;53624;0.000;0.000;2022-11-20T10:07:30;15.20;99.90
66710;DHT22;53624;0.000;0.000;2022-11-20T10:09:58;15.20;99.90
66710;DHT22;53624;0.000;0.000;2022-11-20T10:12:27;15.10;99.90
66710;DHT22;53624;0.000;0.000;2022-11-20T10:15:03;15.30;99.90
66710;DHT22;53624;0.000;0.000;2022-11-20T10:17:40;15.30;99.90
66710;DHT22;53624;0.000;0.000;2022-11-20T10:20:15;15.30;99.90
66710;DHT22;53624;0.000;0.000;2022-11-20T10:22:48;15.40;99.90
66710;DHT22;53624;0.000;0.000;2022-11-20T10:25:19;15.30;99.90
66710;DHT22;53624;0.000;0.000;2022-11-20T10:28:00;15.30;99.90
66710;DHT22;53624;0.000;0.000;2022-11-20T10:30:33;15.20;99.90
66710;DHT22;53624;0.000;0.000;2022-11-20T10:33:06;15.20;99.90
66710;DHT22;53624;0.000;0.000;2022-11-20T10:35:37;15.20;99.90
66710;DHT22;53624;0.000;0.000;2022-11-20T10:38:07;15.20;99.90
66710;DHT22;53624;0.000;0.000;2022-11-20T10:40:37;15.20;99.90
66710;DHT22;53624;0.000;0.000;2022-11-20T10:43:08;15.20;99.90
66710;DHT22;53624;0.000;0.000;2022-11-20T10:45:42;15.20;99.90
66710;DHT22;53624;0.000;0.000;2022-11-20T10:48:14;15.20;99.90
66710;DHT22;53624;0.000;0.000;2022-11-20T10:50:46;15.20;99.90
66710;DHT22;53624;0.000;0.000;2022-11-20T10:53:18;15.20;99.90
66710;DHT22;53624;0.000;0.000;2022-11-20T10:55:49;15.20;99.90
66710;DHT22;53624;0.000;0.000;2022-11-20T10:58:19;15.20;99.90
66710;DHT22;53624;0.000;0.000;2022-11-20T11:00:49;15.10;99.90
66710;DHT22;53624;0.000;0.000;2022-11-20T11:03:22;15.10;99.90
66710;DHT22;53624;0.000;0.000;2022-11-20T11:05:51;15.10;99.90
66710;DHT22;53624;0.000;0.000;2022-11-20T11:08:22;15.30;99.90
66710;DHT22;53624;0.000;0.000;2022-11-20T11:10:51;15.30;99.90
66710;DHT22;53624;0.000;0.000;2022-11-20T11:13:19;15.20;99.90
66710;DHT22;53624;0.000;0.000;2022-11-20T11:15:47;15.10;99.90
66710;DHT22;53624;0.000;0.000;2022-11-20T11:18:24;15.10;99.90
66710;DHT22;53624;0.000;0.000;2022-11-20T11:20:52;15.00;99.90
66710;DHT22;53624;0.000;0.000;2022-11-20T11:23:31;15.00;99.90
66710;DHT22;53624;0.000;0.000;2022-11-20T11:25:59;15.00;99.90
66710;DHT22;53624;0.000;0.000;2022-11-20T11:28:27;15.00;99.90
66710;DHT22;53624;0.000;0.000;2022-11-20T11:30:55;15.00;99.90
66710;DHT22;53624;0.000;0.000;2022-11-20T11:33:25;15.20;99.90
66710;DHT22;53624;0.000;0.000;2022-11-20T11:35:53;15.40;99.90
66710;DHT22;53624;0.000;0.000;2022-11-20T11:38:27;15.60;99.90
66710;DHT22;53624;0.000;0.000;2022-11-20T11:40:55;15.70;99.90
66710;DHT22;53624;0.000;0.000;2022-11-20T11:43:24;15.70;99.90
66710;DHT22;53624;0.000;0.000;2022-11-20T11:46:19;15.70;99.90
66710;DHT22;53624;0.000;0.000;2022-11-20T11:48:56;15.60;99.90
66710;DHT22;53624;0.000;0.000;2022-11-20T11:51:25;15.50;99.90
66710;DHT22;53624;0.000;0.000;2022-11-20T11:53:55;15.50;99.90
66710;DHT22;53624;0.000;0.000;2022-11-20T11:56:23;15.70;99.90
66710;DHT22;53624;0.000;0.000;2022-11-20T11:58:51;16.10;99.90
66710;DHT22;53624;0.000;0.000;2022-11-20T12:01:24;16.60;99.90
66710;DHT22;53624;0.000;0.000;2022-11-20T12:04:05;16.90;99.90
66710;DHT22;53624;0.000;0.000;2022-11-20T12:06:35;17.00;99.90
66710;DHT22;53624;0.000;0.000;2022-11-20T12:09:04;17.10;99.90
66710;DHT22;53624;0.000;0.000;2022-11-20T12:11:33;17.20;99.90
66710;DHT22;53624;0.000;0.000;2022-11-20T12:14:04;17.30;99.90
66710;DHT22;53624;0.000;0.000;2022-11-20T12:16:36;17.50;99.90
66710;DHT22;53624;0.000;0.000;2022-11-20T12:19:08;17.70;99.90
66710;DHT22;53624;0.000;0.000;2022-11-20T12:21:39;17.90;99.90
66710;DHT22;53624;0.000;0.000;2022-11-20T12:24:21;18.00;99.90
66710;DHT22;53624;0.000;0.000;2022-11-20T12:26:56;18.10;99.90
66710;DHT22;53624;0.000;0.000;2022-11-20T12:29:29;18.30;99.90
66710;DHT22;53624;0.000;0.000;2022-11-20T12:32:03;18.40;99.90
66710;DHT22;53624;0.000;0.000;2022-11-20T12:34:44;18.50;99.90
66710;DHT22;53624;0.000;0.000;2022-11-20T12:37:18;18.70;99.90
66710;DHT22;53624;0.000;0.000;2022-11-20T12:39:51;18.80;99.90
66710;DHT22;53624;0.000;0.000;2022-11-20T12:45:30;19.00;99.90
66710;DHT22;53624;0.000;0.000;2022-11-20T12:48:03;19.20;99.90
66710;DHT22;53624;0.000;0.000;2022-11-20T12:50:42;19.30;99.90
66710;DHT22;53624;0.000;0.000;2022-11-20T12:53:16;19.40;99.90
66710;DHT22;53624;0.000;0.000;2022-11-20T12:55:49;19.60;99.90
66710;DHT22;53624;0.000;0.000;2022-11-20T12:58:23;19.60;99.90
66710;DHT22;53624;0.000;0.000;2022-11-20T13:00:54;19.50;99.00
66710;DHT22;53624;0.000;0.000;2022-11-20T13:03:27;19.60;99.00
66710;DHT22;53624;0.000;0.000;2022-11-20T13:06:01;19.70;98.60
66710;DHT22;53624;0.000;0.000;2022-11-20T13:08:33;19.80;98.50
66710;DHT22;53624;0.000;0.000;2022-11-20T13:11:03;19.90;98.40
66710;DHT22;53624;0.000;0.000;2022-11-20T13:13:36;20.00;98.40
66710;DHT22;53624;0.000;0.000;2022-11-20T13:16:08;20.10;98.40
66710;DHT22;53624;0.000;0.000;2022-11-20T13:18:38;20.20;98.40
66710;DHT22;53624;0.000;0.000;2022-11-20T13:21:15;20.20;98.40
66710;DHT22;53624;0.000;0.000;2022-11-20T13:23:43;20.20;98.50
66710;DHT22;53624;0.000;0.000;2022-11-20T13:26:15;20.20;98.60
66710;DHT22;53624;0.000;0.000;2022-11-20T13:28:43;20.20;98.70
66710;DHT22;53624;0.000;0.000;2022-11-20T13:31:23;20.20;98.80
66710;DHT22;53624;0.000;0.000;2022-11-20T13:33:51;20.10;99.00
66710;DHT22;53624;0.000;0.000;2022-11-20T13:36:22;20.00;99.20
66710;DHT22;53624;0.000;0.000;2022-11-20T13:38:50;19.90;99.30
66710;DHT22;53624;0.000;0.000;2022-11-20T13:41:23;19.90;99.50
66710;DHT22;53624;0.000;0.000;2022-11-20T13:43:58;19.70;99.60
66710;DHT22;53624;0.000;0.000;2022-11-20T13:46:34;19.60;99.80
66710;DHT22;53624;0.000;0.000;2022-11-20T13:49:06;19.50;99.90
66710;DHT22;53624;0.000;0.000;2022-11-20T13:51:37;19.40;99.90
66710;DHT22;53624;0.000;0.000;2022-11-20T13:54:26;19.30;99.90
66710;DHT22;53624;0.000;0.000;2022-11-20T13:57:02;19.10;99.90
66710;DHT22;53624;0.000;0.000;2022-11-20T13:59:36;19.00;99.90
66710;DHT22;53624;0.000;0.000;2022-11-20T14:02:09;18.90;99.90
66710;DHT22;53624;0.000;0.000;2022-11-20T14:04:38;18.70;99.90
66710;DHT22;53624;0.000;0.000;2022-11-20T14:07:09;18.70;99.90
66710;DHT22;53624;0.000;0.000;2022-11-20T14:09:37;18.50;99.90
66710;DHT22;53624;0.000;0.000;2022-11-20T14:12:17;18.40;99.90
66710;DHT22;53624;0.000;0.000;2022-11-20T14:14:49;18.30;99.90
66710;DHT22;53624;0.000;0.000;2022-11-20T14:17:18;18.20;99.90
66710;DHT22;53624;0.000;0.000;2022-11-20T14:19:46;18.10;99.90
66710;DHT22;53624;0.000;0.000;2022-11-20T14:22:19;18.10;99.90
66710;DHT22;53624;0.000;0.000;2022-11-20T14:24:47;17.90;99.90
66710;DHT22;53624;0.000;0.000;2022-11-20T14:27:15;17.80;99.90
66710;DHT22;53624;0.000;0.000;2022-11-20T14:29:44;17.70;99.90
66710;DHT22;53624;0.000;0.000;2022-11-20T14:32:14;17.60;99.90
66710;DHT22;53624;0.000;0.000;2022-11-20T14:34:43;17.50;99.90
66710;DHT22;53624;0.000;0.000;2022-11-20T14:37:12;17.50;99.90
66710;DHT22;53624;0.000;0.000;2022-11-20T14:39:42;17.40;99.90
66710;DHT22;53624;0.000;0.000;2022-11-20T14:42:16;17.30;99.90
66710;DHT22;53624;0.000;0.000;2022-11-20T14:44:44;17.20;99.90
66710;DHT22;53624;0.000;0.000;2022-11-20T14:47:12;17.10;99.90
66710;DHT22;53624;0.000;0.000;2022-11-20T14:49:40;17.10;99.90
66710;DHT22;53624;0.000;0.000;2022-11-20T14:52:11;17.00;99.90
66710;DHT22;53624;0.000;0.000;2022-11-20T14:54:44;16.90;99.90
66710;DHT22;53624;0.000;0.000;2022-11-20T14:57:25;16.80;99.90
66710;DHT22;53624;0.000;0.000;2022-11-20T15:00:07;16.70;99.90
66710;DHT22;53624;0.000;0.000;2022-11-20T15:02:38;16.70;99.90
66710;DHT22;53624;0.000;0.000;2022-11-20T15:05:06;16.60;99.90
66710;DHT22;53624;0.000;0.000;2022-11-20T15:07:34;16.50;99.90
66710;DHT22;53624;0.000;0.000;2022-11-20T15:10:05;16.50;99.90
66710;DHT22;53624;0.000;0.000;2022-11-20T15:12:33;16.40;99.90
66710;DHT22;53624;0.000;0.000;2022-11-20T15:15:02;16.30;99.90
66710;DHT22;53624;0.000;0.000;2022-11-20T15:17:31;16.30;99.90
66710;DHT22;53624;0.000;0.000;2022-11-20T15:19:58;16.20;99.90
66710;DHT22;53624;0.000;0.000;2022-11-20T15:22:27;16.20;99.90
66710;DHT22;53624;0.000;0.000;2022-11-20T15:24:54;16.10;99.90
66710;DHT22;53624;0.000;0.000;2022-11-20T15:27:23;16.00;99.90
66710;DHT22;53624;0.000;0.000;2022-11-20T15:29:50;16.00;99.90
66710;DHT22;53624;0.000;0.000;2022-11-20T15:32:18;15.90;99.90
66710;DHT22;53624;0.000;0.000;2022-11-20T15:34:45;15.90;99.90
66710;DHT22;53624;0.000;0.000;2022-11-20T15:37:13;15.80;99.90
66710;DHT22;53624;0.000;0.000;2022-11-20T15:39:41;15.80;99.90
66710;DHT22;53624;0.000;0.000;2022-11-20T15:42:08;15.70;99.90
66710;DHT22;53624;0.000;0.000;2022-11-20T15:44:37;15.70;99.90
66710;DHT22;53624;0.000;0.000;2022-11-20T15:47:05;15.60;99.90
66710;DHT22;53624;0.000;0.000;2022-11-20T15:49:32;15.60;99.90
66710;DHT22;53624;0.000;0.000;2022-11-20T15:52:00;15.50;99.90
66710;DHT22;53624;0.000;0.000;2022-11-20T15:54:27;15.40;99.90
66710;DHT22;53624;0.000;0.000;2022-11-20T15:56:55;15.40;99.90
66710;DHT22;53624;0.000;0.000;2022-11-20T15:59:22;15.40;99.90
66710;DHT22;53624;0.000;0.000;2022-11-20T16:01:51;15.30;99.90
66710;DHT22;53624;0.000;0.000;2022-11-20T16:04:19;15.30;99.90